sensor_id;sensor_type;location;lat;lon;timestamp;P1;durP1;ratioP1;P2;durP2;ratioP2
31045;SDS011;17711;54.018;9.300;2023-06-01T00:01:35;33.60;;;32.20;;
31045;SDS011;17711;54.018;9.300;2023-06-01T00:04:04;39.15;;;37.35;;
31045;SDS011;17711;54.018;9.300;2023-06-01T00:06:34;34.22;;;32.83;;
31045;SDS011;17711;54.018;9.300;2023-06-01T00:09:04;38.53;;;36.80;;
31045;SDS011;17711;54.018;9.300;2023-06-01T00:11:32;32.95;;;31.60;;
31045;SDS011;17711;54.018;9.300;2023-06-01T00:14:01;36.45;;;34.83;;
31045;SDS011;17711;54.018;9.300;2023-06-01T00:16:30;33.75;;;32.35;;
31045;SDS011;17711;54.018;9.300;2023-06-01T00:18:59;36.55;;;34.92;;
31045;SDS011;17711;54.018;9.300;2023-06-01T00:21:28;32.80;;;31.50;;
31045;SDS011;17711;54.018;9.300;2023-06-01T00:23:59;34.72;;;33.20;;
31045;SDS011;17711;54.018;9.300;2023-06-01T00:26:29;30.80;;;29.50;;
31045;SDS011;17711;54.018;9.300;2023-06-01T00:28:58;31.80;;;30.42;;
31045;SDS011;17711;54.018;9.300;2023-06-01T00:31:27;31.20;;;29.90;;
31045;SDS011;17711;54.018;9.300;2023-06-01T00:33:56;31.52;;;30.23;;
31045;SDS011;17711;54.018;9.300;2023-06-01T00:36:24;32.15;;;30.85;;
31045;SDS011;17711;54.018;9.300;2023-06-01T00:38:53;32.17;;;30.88;;
31045;SDS011;17711;54.018;9.300;2023-06-01T00:41:29;31.83;;;30.52;;
31045;SDS011;17711;54.018;9.300;2023-06-01T00:43:59;35.00;;;33.45;;
31045;SDS011;17711;54.018;9.300;2023-06-01T00:46:28;30.90;;;29.70;;
31045;SDS011;17711;54.018;9.300;2023-06-01T00:48:58;33.95;;;32.50;;
31045;SDS011;17711;54.018;9.300;2023-06-01T00:51:27;31.08;;;29.77;;
31045;SDS011;17711;54.018;9.300;2023-06-01T00:53:55;30.23;;;28.95;;
31045;SDS011;17711;54.018;9.300;2023-06-01T00:56:24;31.77;;;30.48;;
31045;SDS011;17711;54.018;9.300;2023-06-01T00:58:54;29.25;;;28.05;;
31045;SDS011;17711;54.018;9.300;2023-06-01T01:01:23;29.20;;;28.00;;
31045;SDS011;17711;54.018;9.300;2023-06-01T01:03:52;30.05;;;28.85;;
31045;SDS011;17711;54.018;9.300;2023-06-01T01:06:27;29.45;;;28.25;;
31045;SDS011;17711;54.018;9.300;2023-06-01T01:09:10;34.92;;;33.33;;
31045;SDS011;17711;54.018;9.300;2023-06-01T01:11:47;30.00;;;28.80;;
31045;SDS011;17711;54.018;9.300;2023-06-01T01:14:22;29.83;;;28.63;;
31045;SDS011;17711;54.018;9.300;2023-06-01T01:16:57;30.00;;;28.77;;
31045;SDS011;17711;54.018;9.300;2023-06-01T01:19:35;29.83;;;28.63;;
31045;SDS011;17711;54.018;9.300;2023-06-01T01:22:25;29.58;;;28.38;;
31045;SDS011;17711;54.018;9.300;2023-06-01T01:25:20;32.45;;;30.98;;
31045;SDS011;17711;54.018;9.300;2023-06-01T01:27:59;29.05;;;27.85;;
31045;SDS011;17711;54.018;9.300;2023-06-01T01:30:37;28.80;;;27.63;;
31045;SDS011;17711;54.018;9.300;2023-06-01T01:35:38;29.30;;;28.10;;
31045;SDS011;17711;54.018;9.300;2023-06-01T01:38:06;46.75;;;44.65;;
31045;SDS011;17711;54.018;9.300;2023-06-01T01:40:35;29.13;;;27.92;;
31045;SDS011;17711;54.018;9.300;2023-06-01T01:43:03;33.85;;;32.28;;
31045;SDS011;17711;54.018;9.300;2023-06-01T01:45:32;28.60;;;27.40;;
31045;SDS011;17711;54.018;9.300;2023-06-01T01:48:05;32.83;;;31.30;;
31045;SDS011;17711;54.018;9.300;2023-06-01T01:50:45;28.67;;;27.48;;
31045;SDS011;17711;54.018;9.300;2023-06-01T01:53:19;40.92;;;39.22;;
31045;SDS011;17711;54.018;9.300;2023-06-01T01:55:49;28.25;;;27.15;;
31045;SDS011;17711;54.018;9.300;2023-06-01T01:58:19;28.38;;;27.17;;
31045;SDS011;17711;54.018;9.300;2023-06-01T02:00:48;29.15;;;27.95;;
31045;SDS011;17711;54.018;9.300;2023-06-01T02:03:19;27.40;;;26.30;;
31045;SDS011;17711;54.018;9.300;2023-06-01T02:05:48;28.20;;;27.10;;
31045;SDS011;17711;54.018;9.300;2023-06-01T02:08:16;29.33;;;28.13;;
31045;SDS011;17711;54.018;9.300;2023-06-01T02:10:45;27.73;;;26.63;;
31045;SDS011;17711;54.018;9.300;2023-06-01T02:13:13;32.28;;;30.80;;
31045;SDS011;17711;54.018;9.300;2023-06-01T02:15:42;28.45;;;27.27;;
31045;SDS011;17711;54.018;9.300;2023-06-01T02:18:11;32.58;;;31.08;;
31045;SDS011;17711;54.018;9.300;2023-06-01T02:20:45;28.15;;;26.95;;
31045;SDS011;17711;54.018;9.300;2023-06-01T02:23:14;33.22;;;31.73;;
31045;SDS011;17711;54.018;9.300;2023-06-01T02:25:43;29.00;;;27.80;;
31045;SDS011;17711;54.018;9.300;2023-06-01T02:28:11;33.65;;;32.08;;
31045;SDS011;17711;54.018;9.300;2023-06-01T02:30:40;27.98;;;26.85;;
31045;SDS011;17711;54.018;9.300;2023-06-01T02:33:09;32.88;;;31.38;;
31045;SDS011;17711;54.018;9.300;2023-06-01T02:35:38;29.40;;;28.20;;
31045;SDS011;17711;54.018;9.300;2023-06-01T02:38:08;32.15;;;30.65;;
31045;SDS011;17711;54.018;9.300;2023-06-01T02:40:37;28.67;;;27.48;;
31045;SDS011;17711;54.018;9.300;2023-06-01T02:43:05;33.50;;;31.95;;
31045;SDS011;17711;54.018;9.300;2023-06-01T02:45:34;29.23;;;28.02;;
31045;SDS011;17711;54.018;9.300;2023-06-01T02:48:03;33.80;;;32.25;;
31045;SDS011;17711;54.018;9.300;2023-06-01T02:50:31;28.65;;;27.48;;
31045;SDS011;17711;54.018;9.300;2023-06-01T02:53:00;33.28;;;31.77;;
31045;SDS011;17711;54.018;9.300;2023-06-01T02:55:30;29.63;;;28.42;;
31045;SDS011;17711;54.018;9.300;2023-06-01T02:57:58;31.92;;;30.58;;
31045;SDS011;17711;54.018;9.300;2023-06-01T03:00:27;28.92;;;27.73;;
31045;SDS011;17711;54.018;9.300;2023-06-01T03:02:56;30.90;;;29.60;;
31045;SDS011;17711;54.018;9.300;2023-06-01T03:05:25;31.15;;;29.85;;
31045;SDS011;17711;54.018;9.300;2023-06-01T03:07:56;30.23;;;28.92;;
31045;SDS011;17711;54.018;9.300;2023-06-01T03:10:25;32.67;;;31.38;;
31045;SDS011;17711;54.018;9.300;2023-06-01T03:12:55;29.73;;;28.52;;
31045;SDS011;17711;54.018;9.300;2023-06-01T03:15:24;29.90;;;28.70;;
31045;SDS011;17711;54.018;9.300;2023-06-01T03:17:53;30.02;;;28.80;;
31045;SDS011;17711;54.018;9.300;2023-06-01T03:20:22;29.80;;;28.60;;
31045;SDS011;17711;54.018;9.300;2023-06-01T03:22:51;734.38;;;684.55;;
31045;SDS011;17711;54.018;9.300;2023-06-01T03:25:20;30.08;;;28.88;;
31045;SDS011;17711;54.018;9.300;2023-06-01T03:27:49;30.17;;;28.98;;
31045;SDS011;17711;54.018;9.300;2023-06-01T03:30:19;31.63;;;30.33;;
31045;SDS011;17711;54.018;9.300;2023-06-01T03:32:49;32.40;;;31.02;;
31045;SDS011;17711;54.018;9.300;2023-06-01T03:35:17;31.60;;;30.30;;
31045;SDS011;17711;54.018;9.300;2023-06-01T03:37:46;31.00;;;29.70;;
31045;SDS011;17711;54.018;9.300;2023-06-01T03:40:15;36.17;;;34.58;;
31045;SDS011;17711;54.018;9.300;2023-06-01T03:42:44;31.65;;;30.35;;
31045;SDS011;17711;54.018;9.300;2023-06-01T03:45:14;36.30;;;34.65;;
31045;SDS011;17711;54.018;9.300;2023-06-01T03:47:44;33.17;;;31.83;;
31045;SDS011;17711;54.018;9.300;2023-06-01T03:50:14;37.25;;;35.55;;
31045;SDS011;17711;54.018;9.300;2023-06-01T03:52:42;32.75;;;31.45;;
31045;SDS011;17711;54.018;9.300;2023-06-01T03:55:12;201.82;;;193.18;;
31045;SDS011;17711;54.018;9.300;2023-06-01T03:57:41;34.25;;;32.85;;
31045;SDS011;17711;54.018;9.300;2023-06-01T04:00:10;37.85;;;36.13;;
31045;SDS011;17711;54.018;9.300;2023-06-01T04:02:48;34.95;;;33.45;;
31045;SDS011;17711;54.018;9.300;2023-06-01T04:05:21;34.17;;;32.78;;
31045;SDS011;17711;54.018;9.300;2023-06-01T04:07:51;33.92;;;32.53;;
31045;SDS011;17711;54.018;9.300;2023-06-01T04:10:20;40.63;;;38.95;;
31045;SDS011;17711;54.018;9.300;2023-06-01T04:12:49;32.13;;;30.83;;
31045;SDS011;17711;54.018;9.300;2023-06-01T04:15:19;35.20;;;33.75;;
31045;SDS011;17711;54.018;9.300;2023-06-01T04:17:49;48.58;;;46.60;;
31045;SDS011;17711;54.018;9.300;2023-06-01T04:20:18;33.25;;;31.85;;
31045;SDS011;17711;54.018;9.300;2023-06-01T04:22:47;35.97;;;34.47;;
31045;SDS011;17711;54.018;9.300;2023-06-01T04:25:15;44.47;;;42.55;;
31045;SDS011;17711;54.018;9.300;2023-06-01T04:27:45;34.92;;;33.53;;
31045;SDS011;17711;54.018;9.300;2023-06-01T04:30:15;36.85;;;35.25;;
31045;SDS011;17711;54.018;9.300;2023-06-01T04:32:47;34.53;;;33.13;;
31045;SDS011;17711;54.018;9.300;2023-06-01T04:35:17;44.10;;;42.22;;
31045;SDS011;17711;54.018;9.300;2023-06-01T04:37:46;35.20;;;33.80;;
31045;SDS011;17711;54.018;9.300;2023-06-01T04:40:15;37.88;;;36.17;;
31045;SDS011;17711;54.018;9.300;2023-06-01T04:42:44;36.72;;;35.13;;
31045;SDS011;17711;54.018;9.300;2023-06-01T04:45:16;38.67;;;36.97;;
31045;SDS011;17711;54.018;9.300;2023-06-01T04:47:46;38.05;;;36.45;;
31045;SDS011;17711;54.018;9.300;2023-06-01T04:50:15;39.65;;;37.85;;
31045;SDS011;17711;54.018;9.300;2023-06-01T04:52:45;37.30;;;35.70;;
31045;SDS011;17711;54.018;9.300;2023-06-01T04:55:15;40.92;;;39.03;;
31045;SDS011;17711;54.018;9.300;2023-06-01T04:57:44;39.50;;;37.80;;
31045;SDS011;17711;54.018;9.300;2023-06-01T05:00:13;40.95;;;39.05;;
31045;SDS011;17711;54.018;9.300;2023-06-01T05:02:46;37.78;;;36.17;;
31045;SDS011;17711;54.018;9.300;2023-06-01T05:05:16;38.10;;;36.50;;
31045;SDS011;17711;54.018;9.300;2023-06-01T05:07:46;39.13;;;37.53;;
31045;SDS011;17711;54.018;9.300;2023-06-01T05:10:15;41.78;;;39.88;;
31045;SDS011;17711;54.018;9.300;2023-06-01T05:12:44;38.17;;;36.58;;
31045;SDS011;17711;54.018;9.300;2023-06-01T05:15:13;40.42;;;38.63;;
31045;SDS011;17711;54.018;9.300;2023-06-01T05:17:43;35.50;;;34.05;;
31045;SDS011;17711;54.018;9.300;2023-06-01T05:20:14;759.25;;;711.60;;
31045;SDS011;17711;54.018;9.300;2023-06-01T05:22:43;36.17;;;34.67;;
31045;SDS011;17711;54.018;9.300;2023-06-01T05:25:13;39.78;;;37.95;;
31045;SDS011;17711;54.018;9.300;2023-06-01T05:27:41;137.30;;;131.40;;
31045;SDS011;17711;54.018;9.300;2023-06-01T05:30:10;39.08;;;37.33;;
31045;SDS011;17711;54.018;9.300;2023-06-01T05:32:40;35.55;;;34.05;;
31045;SDS011;17711;54.018;9.300;2023-06-01T05:35:09;39.72;;;37.92;;
31045;SDS011;17711;54.018;9.300;2023-06-01T05:37:38;35.88;;;34.38;;
31045;SDS011;17711;54.018;9.300;2023-06-01T05:40:07;828.25;;;772.35;;
31045;SDS011;17711;54.018;9.300;2023-06-01T05:42:37;35.60;;;34.13;;
31045;SDS011;17711;54.018;9.300;2023-06-01T05:45:06;39.95;;;38.15;;
31045;SDS011;17711;54.018;9.300;2023-06-01T05:47:37;42.70;;;40.97;;
31045;SDS011;17711;54.018;9.300;2023-06-01T05:50:06;40.35;;;38.50;;
31045;SDS011;17711;54.018;9.300;2023-06-01T05:52:34;36.95;;;35.45;;
31045;SDS011;17711;54.018;9.300;2023-06-01T05:55:03;40.92;;;39.13;;
31045;SDS011;17711;54.018;9.300;2023-06-01T05:57:32;37.65;;;36.10;;
31045;SDS011;17711;54.018;9.300;2023-06-01T06:00:03;42.38;;;40.47;;
31045;SDS011;17711;54.018;9.300;2023-06-01T06:02:36;38.90;;;37.30;;
31045;SDS011;17711;54.018;9.300;2023-06-01T06:05:05;44.42;;;42.42;;
31045;SDS011;17711;54.018;9.300;2023-06-01T06:07:35;39.88;;;38.25;;
31045;SDS011;17711;54.018;9.300;2023-06-01T06:10:04;43.55;;;41.55;;
31045;SDS011;17711;54.018;9.300;2023-06-01T06:12:34;81.53;;;77.45;;
31045;SDS011;17711;54.018;9.300;2023-06-01T06:15:05;56.72;;;54.15;;
31045;SDS011;17711;54.018;9.300;2023-06-01T06:17:34;40.78;;;39.08;;
31045;SDS011;17711;54.018;9.300;2023-06-01T06:20:03;47.63;;;45.53;;
31045;SDS011;17711;54.018;9.300;2023-06-01T06:22:34;41.25;;;39.55;;
31045;SDS011;17711;54.018;9.300;2023-06-01T06:25:04;411.08;;;388.38;;
31045;SDS011;17711;54.018;9.300;2023-06-01T06:27:33;44.58;;;42.78;;
31045;SDS011;17711;54.018;9.300;2023-06-01T06:30:02;46.70;;;44.63;;
31045;SDS011;17711;54.018;9.300;2023-06-01T06:32:32;44.40;;;42.60;;
31045;SDS011;17711;54.018;9.300;2023-06-01T06:35:01;45.70;;;43.70;;
31045;SDS011;17711;54.018;9.300;2023-06-01T06:37:30;42.30;;;40.60;;
31045;SDS011;17711;54.018;9.300;2023-06-01T06:39:59;47.47;;;45.45;;
31045;SDS011;17711;54.018;9.300;2023-06-01T06:42:27;41.95;;;40.25;;
31045;SDS011;17711;54.018;9.300;2023-06-01T06:44:57;59.67;;;57.22;;
31045;SDS011;17711;54.018;9.300;2023-06-01T06:47:26;43.65;;;41.85;;
31045;SDS011;17711;54.018;9.300;2023-06-01T06:49:56;46.00;;;44.10;;
31045;SDS011;17711;54.018;9.300;2023-06-01T06:52:25;43.30;;;41.50;;
31045;SDS011;17711;54.018;9.300;2023-06-01T06:54:53;44.15;;;42.25;;
31045;SDS011;17711;54.018;9.300;2023-06-01T06:57:22;42.13;;;40.42;;
31045;SDS011;17711;54.018;9.300;2023-06-01T06:59:51;47.25;;;45.28;;
31045;SDS011;17711;54.018;9.300;2023-06-01T07:02:19;46.03;;;44.13;;
31045;SDS011;17711;54.018;9.300;2023-06-01T07:04:48;51.42;;;49.30;;
31045;SDS011;17711;54.018;9.300;2023-06-01T07:07:18;45.50;;;43.60;;
31045;SDS011;17711;54.018;9.300;2023-06-01T07:09:47;45.63;;;43.72;;
31045;SDS011;17711;54.018;9.300;2023-06-01T07:12:15;46.05;;;44.05;;
31045;SDS011;17711;54.018;9.300;2023-06-01T07:14:44;46.00;;;44.10;;
31045;SDS011;17711;54.018;9.300;2023-06-01T07:17:13;48.83;;;46.63;;
31045;SDS011;17711;54.018;9.300;2023-06-01T07:19:41;43.97;;;42.15;;
31045;SDS011;17711;54.018;9.300;2023-06-01T07:22:10;49.15;;;46.90;;
31045;SDS011;17711;54.018;9.300;2023-06-01T07:24:40;60.00;;;57.50;;
31045;SDS011;17711;54.018;9.300;2023-06-01T07:27:09;122.25;;;116.95;;
31045;SDS011;17711;54.018;9.300;2023-06-01T07:29:37;43.20;;;41.40;;
31045;SDS011;17711;54.018;9.300;2023-06-01T07:32:06;49.67;;;47.38;;
31045;SDS011;17711;54.018;9.300;2023-06-01T07:34:35;767.95;;;718.03;;
31045;SDS011;17711;54.018;9.300;2023-06-01T07:37:04;50.53;;;48.20;;
31045;SDS011;17711;54.018;9.300;2023-06-01T07:39:44;43.03;;;41.22;;
31045;SDS011;17711;54.018;9.300;2023-06-01T07:42:13;50.67;;;48.38;;
31045;SDS011;17711;54.018;9.300;2023-06-01T07:44:42;48.97;;;46.90;;
31045;SDS011;17711;54.018;9.300;2023-06-01T07:47:10;53.65;;;51.25;;
31045;SDS011;17711;54.018;9.300;2023-06-01T07:49:39;46.50;;;44.60;;
31045;SDS011;17711;54.018;9.300;2023-06-01T07:52:08;58.08;;;55.47;;
31045;SDS011;17711;54.018;9.300;2023-06-01T07:54:36;47.05;;;45.13;;
31045;SDS011;17711;54.018;9.300;2023-06-01T07:57:07;51.83;;;49.40;;
31045;SDS011;17711;54.018;9.300;2023-06-01T07:59:35;49.50;;;47.50;;
31045;SDS011;17711;54.018;9.300;2023-06-01T08:02:04;53.40;;;50.97;;
31045;SDS011;17711;54.018;9.300;2023-06-01T08:04:33;47.58;;;45.58;;
31045;SDS011;17711;54.018;9.300;2023-06-01T08:07:02;51.25;;;48.95;;
31045;SDS011;17711;54.018;9.300;2023-06-01T08:09:33;46.33;;;44.42;;
31045;SDS011;17711;54.018;9.300;2023-06-01T08:12:04;50.95;;;48.60;;
31045;SDS011;17711;54.018;9.300;2023-06-01T08:14:35;46.88;;;44.90;;
31045;SDS011;17711;54.018;9.300;2023-06-01T08:17:04;50.17;;;47.85;;
31045;SDS011;17711;54.018;9.300;2023-06-01T08:19:34;46.88;;;44.97;;
31045;SDS011;17711;54.018;9.300;2023-06-01T08:22:03;46.50;;;44.40;;
31045;SDS011;17711;54.018;9.300;2023-06-01T08:24:34;43.08;;;41.28;;
31045;SDS011;17711;54.018;9.300;2023-06-01T08:27:03;45.60;;;43.47;;
31045;SDS011;17711;54.018;9.300;2023-06-01T08:29:49;43.05;;;41.25;;
31045;SDS011;17711;54.018;9.300;2023-06-01T08:32:20;42.22;;;40.42;;
31045;SDS011;17711;54.018;9.300;2023-06-01T08:34:49;43.85;;;41.95;;
31045;SDS011;17711;54.018;9.300;2023-06-01T08:37:18;42.10;;;40.40;;
31045;SDS011;17711;54.018;9.300;2023-06-01T08:39:46;42.45;;;40.70;;
31045;SDS011;17711;54.018;9.300;2023-06-01T08:42:19;46.60;;;44.45;;
31045;SDS011;17711;54.018;9.300;2023-06-01T08:44:50;43.65;;;41.85;;
31045;SDS011;17711;54.018;9.300;2023-06-01T08:47:22;43.35;;;41.55;;
31045;SDS011;17711;54.018;9.300;2023-06-01T08:49:53;43.38;;;41.58;;
31045;SDS011;17711;54.018;9.300;2023-06-01T08:52:25;275.30;;;261.35;;
31045;SDS011;17711;54.018;9.300;2023-06-01T08:54:58;68.22;;;65.20;;
31045;SDS011;17711;54.018;9.300;2023-06-01T08:57:29;44.55;;;42.75;;
31045;SDS011;17711;54.018;9.300;2023-06-01T08:59:58;46.53;;;44.60;;
31045;SDS011;17711;54.018;9.300;2023-06-01T09:02:27;46.30;;;44.30;;
31045;SDS011;17711;54.018;9.300;2023-06-01T09:04:55;46.55;;;44.63;;
31045;SDS011;17711;54.018;9.300;2023-06-01T09:07:25;46.38;;;44.45;;
31045;SDS011;17711;54.018;9.300;2023-06-01T09:09:54;46.35;;;44.40;;
31045;SDS011;17711;54.018;9.300;2023-06-01T09:12:23;46.67;;;44.72;;
31045;SDS011;17711;54.018;9.300;2023-06-01T09:15:10;46.53;;;44.55;;
31045;SDS011;17711;54.018;9.300;2023-06-01T09:17:43;46.88;;;44.92;;
31045;SDS011;17711;54.018;9.300;2023-06-01T09:20:13;50.65;;;48.35;;
31045;SDS011;17711;54.018;9.300;2023-06-01T09:22:49;48.05;;;46.05;;
31045;SDS011;17711;54.018;9.300;2023-06-01T09:25:22;46.60;;;44.70;;
31045;SDS011;17711;54.018;9.300;2023-06-01T09:27:53;48.55;;;46.53;;
31045;SDS011;17711;54.018;9.300;2023-06-01T09:30:25;63.63;;;60.97;;
31045;SDS011;17711;54.018;9.300;2023-06-01T09:33:10;54.05;;;51.53;;
31045;SDS011;17711;54.018;9.300;2023-06-01T09:35:41;50.35;;;48.25;;
31045;SDS011;17711;54.018;9.300;2023-06-01T09:38:11;55.28;;;52.75;;
31045;SDS011;17711;54.018;9.300;2023-06-01T09:40:55;49.67;;;47.65;;
31045;SDS011;17711;54.018;9.300;2023-06-01T09:43:24;48.22;;;46.17;;
31045;SDS011;17711;54.018;9.300;2023-06-01T09:48:44;46.92;;;44.92;;
31045;SDS011;17711;54.018;9.300;2023-06-01T09:51:22;52.85;;;50.40;;
31045;SDS011;17711;54.018;9.300;2023-06-01T09:53:56;49.92;;;47.75;;
31045;SDS011;17711;54.018;9.300;2023-06-01T09:56:25;45.38;;;43.47;;
31045;SDS011;17711;54.018;9.300;2023-06-01T09:58:56;48.08;;;46.05;;
31045;SDS011;17711;54.018;9.300;2023-06-01T10:01:29;48.40;;;46.40;;
31045;SDS011;17711;54.018;9.300;2023-06-01T10:03:59;49.53;;;47.33;;
31045;SDS011;17711;54.018;9.300;2023-06-01T10:06:30;100.38;;;96.03;;
31045;SDS011;17711;54.018;9.300;2023-06-01T10:09:01;49.95;;;47.67;;
31045;SDS011;17711;54.018;9.300;2023-06-01T10:11:31;47.83;;;45.83;;
31045;SDS011;17711;54.018;9.300;2023-06-01T10:14:00;49.80;;;47.60;;
31045;SDS011;17711;54.018;9.300;2023-06-01T10:16:31;46.60;;;44.70;;
31045;SDS011;17711;54.018;9.300;2023-06-01T10:19:01;50.88;;;48.58;;
31045;SDS011;17711;54.018;9.300;2023-06-01T10:21:29;47.50;;;45.50;;
31045;SDS011;17711;54.018;9.300;2023-06-01T10:24:01;51.80;;;49.42;;
31045;SDS011;17711;54.018;9.300;2023-06-01T10:26:30;211.48;;;202.50;;
31045;SDS011;17711;54.018;9.300;2023-06-01T10:29:03;53.70;;;51.22;;
31045;SDS011;17711;54.018;9.300;2023-06-01T10:31:35;49.72;;;47.63;;
31045;SDS011;17711;54.018;9.300;2023-06-01T10:34:05;56.00;;;53.45;;
31045;SDS011;17711;54.018;9.300;2023-06-01T10:39:38;50.15;;;48.05;;
31045;SDS011;17711;54.018;9.300;2023-06-01T10:48:05;55.28;;;52.70;;
31045;SDS011;17711;54.018;9.300;2023-06-01T10:50:37;48.97;;;46.97;;
31045;SDS011;17711;54.018;9.300;2023-06-01T10:53:25;57.97;;;55.33;;
31045;SDS011;17711;54.018;9.300;2023-06-01T10:58:46;50.88;;;48.78;;
31045;SDS011;17711;54.018;9.300;2023-06-01T11:01:39;48.50;;;46.50;;
31045;SDS011;17711;54.018;9.300;2023-06-01T11:04:11;52.53;;;50.10;;
31045;SDS011;17711;54.018;9.300;2023-06-01T11:06:41;48.72;;;46.72;;
31045;SDS011;17711;54.018;9.300;2023-06-01T11:09:11;52.90;;;50.50;;
31045;SDS011;17711;54.018;9.300;2023-06-01T11:14:29;47.45;;;45.45;;
31045;SDS011;17711;54.018;9.300;2023-06-01T11:19:58;50.60;;;48.40;;
31045;SDS011;17711;54.018;9.300;2023-06-01T11:22:35;55.80;;;53.47;;
31045;SDS011;17711;54.018;9.300;2023-06-01T11:27:35;51.22;;;49.03;;
31045;SDS011;17711;54.018;9.300;2023-06-01T11:30:04;53.90;;;51.45;;
31045;SDS011;17711;54.018;9.300;2023-06-01T11:32:35;247.88;;;234.63;;
31045;SDS011;17711;54.018;9.300;2023-06-01T11:35:19;53.88;;;51.42;;
31045;SDS011;17711;54.018;9.300;2023-06-01T11:37:55;551.13;;;522.33;;
31045;SDS011;17711;54.018;9.300;2023-06-01T11:40:24;52.47;;;50.28;;
31045;SDS011;17711;54.018;9.300;2023-06-01T11:42:59;1999.90;;;999.90;;
31045;SDS011;17711;54.018;9.300;2023-06-01T11:45:28;1999.90;;;999.90;;
31045;SDS011;17711;54.018;9.300;2023-06-01T11:47:57;1999.90;;;999.90;;
31045;SDS011;17711;54.018;9.300;2023-06-01T11:50:45;1999.90;;;999.90;;
31045;SDS011;17711;54.018;9.300;2023-06-01T11:53:14;1999.90;;;999.90;;
31045;SDS011;17711;54.018;9.300;2023-06-01T11:55:49;1999.90;;;999.90;;
31045;SDS011;17711;54.018;9.300;2023-06-01T11:58:22;1999.90;;;999.90;;
31045;SDS011;17711;54.018;9.300;2023-06-01T12:03:20;1999.90;;;999.90;;
31045;SDS011;17711;54.018;9.300;2023-06-01T12:05:52;1999.90;;;999.90;;
31045;SDS011;17711;54.018;9.300;2023-06-01T12:08:21;1999.90;;;999.90;;
31045;SDS011;17711;54.018;9.300;2023-06-01T12:10:51;1999.90;;;999.90;;
31045;SDS011;17711;54.018;9.300;2023-06-01T12:13:20;1999.90;;;999.90;;
31045;SDS011;17711;54.018;9.300;2023-06-01T12:15:51;1999.90;;;999.90;;
31045;SDS011;17711;54.018;9.300;2023-06-01T12:18:28;1999.90;;;999.90;;
31045;SDS011;17711;54.018;9.300;2023-06-01T12:20:59;1999.90;;;999.90;;
31045;SDS011;17711;54.018;9.300;2023-06-01T12:23:37;1999.90;;;999.90;;
31045;SDS011;17711;54.018;9.300;2023-06-01T12:26:06;1999.90;;;999.90;;
31045;SDS011;17711;54.018;9.300;2023-06-01T12:28:47;1999.90;;;999.90;;
31045;SDS011;17711;54.018;9.300;2023-06-01T12:31:23;1999.90;;;999.90;;
31045;SDS011;17711;54.018;9.300;2023-06-01T12:33:53;1999.90;;;999.90;;
31045;SDS011;17711;54.018;9.300;2023-06-01T12:36:29;1999.90;;;999.90;;
31045;SDS011;17711;54.018;9.300;2023-06-01T12:39:01;1999.90;;;999.90;;
31045;SDS011;17711;54.018;9.300;2023-06-01T12:41:32;1999.90;;;999.90;;
31045;SDS011;17711;54.018;9.300;2023-06-01T12:44:00;1999.90;;;999.90;;
31045;SDS011;17711;54.018;9.300;2023-06-01T12:46:29;1999.90;;;999.90;;
31045;SDS011;17711;54.018;9.300;2023-06-01T12:49:11;1999.90;;;999.90;;
31045;SDS011;17711;54.018;9.300;2023-06-01T12:51:42;1999.90;;;999.90;;
31045;SDS011;17711;54.018;9.300;2023-06-01T12:54:11;1999.90;;;999.90;;
31045;SDS011;17711;54.018;9.300;2023-06-01T12:56:39;1999.90;;;999.90;;
31045;SDS011;17711;54.018;9.300;2023-06-01T12:59:08;1999.90;;;999.90;;
31045;SDS011;17711;54.018;9.300;2023-06-01T13:01:37;1999.90;;;999.90;;
31045;SDS011;17711;54.018;9.300;2023-06-01T13:04:07;1999.90;;;999.90;;
31045;SDS011;17711;54.018;9.300;2023-06-01T13:06:35;1999.90;;;999.90;;
31045;SDS011;17711;54.018;9.300;2023-06-01T13:09:07;1999.90;;;999.90;;
31045;SDS011;17711;54.018;9.300;2023-06-01T13:11:36;1999.90;;;999.90;;
31045;SDS011;17711;54.018;9.300;2023-06-01T13:14:04;1999.90;;;999.90;;
31045;SDS011;17711;54.018;9.300;2023-06-01T13:16:33;1999.90;;;999.90;;
31045;SDS011;17711;54.018;9.300;2023-06-01T13:19:02;1999.90;;;999.90;;
31045;SDS011;17711;54.018;9.300;2023-06-01T13:21:30;1999.90;;;999.90;;
31045;SDS011;17711;54.018;9.300;2023-06-01T13:24:00;1999.90;;;999.90;;
31045;SDS011;17711;54.018;9.300;2023-06-01T13:26:31;1999.90;;;999.90;;
31045;SDS011;17711;54.018;9.300;2023-06-01T13:28:59;1999.90;;;999.90;;
31045;SDS011;17711;54.018;9.300;2023-06-01T13:31:29;1999.90;;;999.90;;
31045;SDS011;17711;54.018;9.300;2023-06-01T13:33:59;1999.90;;;999.90;;
31045;SDS011;17711;54.018;9.300;2023-06-01T13:36:28;1999.90;;;999.90;;
31045;SDS011;17711;54.018;9.300;2023-06-01T13:38:56;1999.90;;;999.90;;
31045;SDS011;17711;54.018;9.300;2023-06-01T13:41:25;1999.90;;;999.90;;
31045;SDS011;17711;54.018;9.300;2023-06-01T13:43:56;1999.90;;;999.90;;
31045;SDS011;17711;54.018;9.300;2023-06-01T13:46:25;1999.90;;;999.90;;
31045;SDS011;17711;54.018;9.300;2023-06-01T13:48:54;1999.90;;;999.90;;
31045;SDS011;17711;54.018;9.300;2023-06-01T13:51:24;1999.90;;;999.90;;
31045;SDS011;17711;54.018;9.300;2023-06-01T13:53:52;1999.90;;;999.90;;
31045;SDS011;17711;54.018;9.300;2023-06-01T13:56:21;1999.90;;;999.90;;
31045;SDS011;17711;54.018;9.300;2023-06-01T13:58:50;1999.90;;;999.90;;
31045;SDS011;17711;54.018;9.300;2023-06-01T14:01:20;1999.90;;;999.90;;
31045;SDS011;17711;54.018;9.300;2023-06-01T14:03:49;1999.90;;;999.90;;
31045;SDS011;17711;54.018;9.300;2023-06-01T14:06:17;1999.90;;;999.90;;
31045;SDS011;17711;54.018;9.300;2023-06-01T14:08:46;1999.90;;;999.90;;
31045;SDS011;17711;54.018;9.300;2023-06-01T14:11:16;1999.90;;;999.90;;
31045;SDS011;17711;54.018;9.300;2023-06-01T14:13:45;1999.90;;;999.90;;
31045;SDS011;17711;54.018;9.300;2023-06-01T14:16:14;1999.90;;;999.90;;
31045;SDS011;17711;54.018;9.300;2023-06-01T14:18:44;1999.90;;;999.90;;
31045;SDS011;17711;54.018;9.300;2023-06-01T14:21:13;1999.90;;;999.90;;
31045;SDS011;17711;54.018;9.300;2023-06-01T14:23:41;1999.90;;;999.90;;
31045;SDS011;17711;54.018;9.300;2023-06-01T14:26:11;1999.90;;;999.90;;
31045;SDS011;17711;54.018;9.300;2023-06-01T14:28:40;1999.90;;;999.90;;
31045;SDS011;17711;54.018;9.300;2023-06-01T14:31:09;1999.90;;;999.90;;
31045;SDS011;17711;54.018;9.300;2023-06-01T14:33:38;1999.90;;;999.90;;
31045;SDS011;17711;54.018;9.300;2023-06-01T14:36:09;1999.90;;;999.90;;
31045;SDS011;17711;54.018;9.300;2023-06-01T14:38:37;1999.90;;;999.90;;
31045;SDS011;17711;54.018;9.300;2023-06-01T14:41:06;1999.90;;;999.90;;
31045;SDS011;17711;54.018;9.300;2023-06-01T14:43:34;1999.90;;;999.90;;
31045;SDS011;17711;54.018;9.300;2023-06-01T14:46:05;1999.90;;;999.90;;
31045;SDS011;17711;54.018;9.300;2023-06-01T14:48:34;1999.90;;;999.90;;
31045;SDS011;17711;54.018;9.300;2023-06-01T14:51:03;1999.90;;;999.90;;
31045;SDS011;17711;54.018;9.300;2023-06-01T14:53:34;1999.90;;;999.90;;
31045;SDS011;17711;54.018;9.300;2023-06-01T14:56:03;1999.90;;;999.90;;
31045;SDS011;17711;54.018;9.300;2023-06-01T14:58:32;1999.90;;;999.90;;